Time;durP1;ratioP1;P1;durP2;ratioP2;P2;SDS_P1;SDS_P2;PMS_P1;PMS_P2;Temp;Humidity;BMP_temperature;BMP_pressure;BME280_temperature;BME280_humidity;BME280_pressure;Samples;Min_cycle;Max_cycle;Signal;HPM_P1;HPM_P2
2023/07/20 00:02:20;;;;;;;6.80;5.55;;;14.70;99.90;;;;;;5117869;27;20047;-40
2023/07/20 00:04:46;;;;;;;6.18;5.57;;;14.70;99.90;;;;;;5116550;27;20054;-39
2023/07/20 00:07:11;;;;;;;5.97;5.22;;;14.70;99.90;;;;;;5117691;27;20150;-39
2023/07/20 00:09:37;;;;;;;6.63;5.40;;;14.70;99.90;;;;;;5117227;27;20054;-39
2023/07/20 00:12:03;;;;;;;6.55;4.95;;;14.60;99.90;;;;;;5117378;27;20131;-39
2023/07/20 00:14:29;;;;;;;6.60;5.57;;;14.60;99.90;;;;;;5109949;27;20084;-39
2023/07/20 00:16:56;;;;;;;5.97;5.25;;;14.60;99.90;;;;;;5111249;27;20042;-39
2023/07/20 00:19:28;;;;;;;7.80;5.32;;;14.50;99.90;;;;;;5117849;27;20573;-39
2023/07/20 00:21:57;;;;;;;6.78;6.18;;;14.50;99.90;;;;;;5117521;27;20047;-39
2023/07/20 00:24:23;;;;;;;7.53;6.10;;;14.40;99.90;;;;;;5109834;27;20461;-39
2023/07/20 00:26:49;;;;;;;6.47;5.88;;;14.30;99.90;;;;;;5097697;27;20066;-39
2023/07/20 00:29:14;;;;;;;8.02;5.82;;;14.20;99.90;;;;;;5116847;27;20352;-39
2023/07/20 00:31:40;;;;;;;6.65;5.75;;;14.20;99.90;;;;;;5116935;27;20414;-39
2023/07/20 00:34:06;;;;;;;6.22;5.72;;;14.10;99.90;;;;;;5117211;27;20418;-39
2023/07/20 00:36:32;;;;;;;7.80;6.50;;;14.00;99.90;;;;;;5115959;27;20118;-39
2023/07/20 00:38:58;;;;;;;6.78;6.18;;;14.00;99.90;;;;;;5117069;27;20096;-39
2023/07/20 00:41:24;;;;;;;7.50;6.20;;;14.00;99.90;;;;;;5117383;27;20494;-39
2023/07/20 00:43:50;;;;;;;8.18;6.05;;;13.90;99.90;;;;;;5113600;27;20081;-39
2023/07/20 00:46:16;;;;;;;6.22;5.72;;;13.90;99.90;;;;;;5115529;27;20447;-39
2023/07/20 00:48:42;;;;;;;6.35;5.75;;;13.80;99.90;;;;;;5098170;27;20074;-39
2023/07/20 00:51:09;;;;;;;5.40;4.93;;;13.80;99.90;;;;;;5116662;27;20054;-39
2023/07/20 00:53:34;;;;;;;7.40;5.70;;;13.70;99.90;;;;;;5116664;27;20075;-39
2023/07/20 00:56:00;;;;;;;5.55;5.05;;;13.70;99.90;;;;;;5115108;27;20619;-39
2023/07/20 00:58:26;;;;;;;5.57;4.72;;;13.60;99.90;;;;;;5097740;27;20047;-39
2023/07/20 01:00:52;;;;;;;5.45;4.95;;;13.50;99.90;;;;;;5116757;27;20413;-39
2023/07/20 01:03:17;;;;;;;6.28;5.68;;;13.50;99.90;;;;;;5116391;27;20051;-39
2023/07/20 01:05:53;;;;;;;6.68;6.15;;;13.40;99.90;;;;;;5114986;27;20050;-39
2023/07/20 01:08:32;;;;;;;6.35;5.75;;;13.30;99.90;;;;;;5117110;27;20099;-39
2023/07/20 01:11:06;;;;;;;5.72;5.22;;;13.30;99.90;;;;;;5121579;27;20670;-39
2023/07/20 01:13:32;;;;;;;6.13;5.53;;;13.30;99.90;;;;;;5137942;27;20432;-39
2023/07/20 01:16:01;;;;;;;6.80;5.90;;;13.20;99.90;;;;;;5105955;27;20096;-39
2023/07/20 01:18:27;;;;;;;8.02;5.75;;;13.20;99.90;;;;;;5117306;27;20154;-39
2023/07/20 01:21:04;;;;;;;5.80;5.30;;;13.10;99.90;;;;;;5116767;27;20398;-39
2023/07/20 01:23:33;;;;;;;5.80;5.18;;;13.10;99.90;;;;;;5109847;27;20516;-39
2023/07/20 01:26:11;;;;;;;6.00;5.50;;;13.10;99.90;;;;;;5114610;27;20501;-39
2023/07/20 01:29:18;;;;;;;7.95;6.20;;;13.00;99.90;;;;;;5116058;27;20121;-40
2023/07/20 01:31:44;;;;;;;6.75;6.05;;;13.00;99.90;;;;;;5116256;27;20522;-39
2023/07/20 01:34:12;;;;;;;6.70;5.75;;;13.00;99.90;;;;;;5114451;27;20138;-39
2023/07/20 01:36:39;;;;;;;7.30;6.70;;;12.90;99.90;;;;;;5115261;27;20058;-39
2023/07/20 01:39:06;;;;;;;6.80;6.10;;;12.90;99.90;;;;;;5115543;27;20046;-39
2023/07/20 01:41:33;;;;;;;6.63;6.10;;;12.80;99.90;;;;;;5115263;27;20058;-39
2023/07/20 01:43:59;;;;;;;5.97;5.47;;;12.80;99.90;;;;;;5094037;28;20129;-39
2023/07/20 01:46:25;;;;;;;7.70;6.95;;;12.70;99.90;;;;;;5114838;27;20119;-44
2023/07/20 01:48:51;;;;;;;7.57;6.57;;;12.70;99.90;;;;;;5115933;27;20529;-39
2023/07/20 01:51:17;;;;;;;7.35;6.75;;;12.70;99.90;;;;;;5097861;27;20426;-39
2023/07/20 01:53:52;;;;;;;7.13;6.53;;;12.60;99.90;;;;;;5115520;27;20148;-39
2023/07/20 01:56:18;;;;;;;7.03;6.32;;;12.60;99.90;;;;;;5113489;27;20092;-39
2023/07/20 01:58:44;;;;;;;7.00;6.40;;;12.60;99.90;;;;;;5114629;27;20039;-39
2023/07/20 02:01:09;;;;;;;8.57;6.28;;;12.50;99.90;;;;;;5110035;27;20468;-39
2023/07/20 02:03:35;;;;;;;7.10;6.25;;;12.50;99.90;;;;;;5113571;28;20531;-39
2023/07/20 02:06:01;;;;;;;6.20;5.60;;;12.50;99.90;;;;;;5093492;28;20389;-39
2023/07/20 02:08:26;;;;;;;5.72;5.22;;;12.50;99.90;;;;;;5115291;27;20175;-39
2023/07/20 02:10:52;;;;;;;6.13;5.55;;;12.40;99.90;;;;;;5116352;27;20355;-39
2023/07/20 02:13:18;;;;;;;7.57;6.03;;;12.40;99.90;;;;;;5115227;27;20058;-39
2023/07/20 02:15:44;;;;;;;6.22;5.55;;;12.40;99.90;;;;;;5103547;27;20145;-39
2023/07/20 02:18:09;;;;;;;5.57;5.10;;;12.40;99.90;;;;;;5093685;27;20079;-39
2023/07/20 02:20:35;;;;;;;8.45;5.55;;;12.30;99.90;;;;;;5139888;27;20556;-39
2023/07/20 02:23:01;;;;;;;5.78;5.28;;;12.40;99.90;;;;;;5117577;27;20093;-39
2023/07/20 02:25:27;;;;;;;5.85;5.35;;;12.30;99.90;;;;;;5131084;27;20138;-39
2023/07/20 02:27:52;;;;;;;4.72;4.32;;;12.30;99.90;;;;;;5140294;27;20045;-39
2023/07/20 02:30:18;;;;;;;6.97;5.15;;;12.30;99.90;;;;;;5139975;27;20051;-39
2023/07/20 02:32:45;;;;;;;5.70;4.88;;;12.20;99.90;;;;;;5139953;27;20125;-39
2023/07/20 02:35:11;;;;;;;6.10;4.78;;;12.20;99.90;;;;;;5138849;27;20054;-39
2023/07/20 02:37:37;;;;;;;5.07;4.32;;;12.20;99.90;;;;;;5129715;27;20154;-39
2023/07/20 02:40:04;;;;;;;5.95;5.15;;;12.00;99.90;;;;;;5119177;27;20371;-39
2023/07/20 02:42:30;;;;;;;4.97;4.57;;;12.00;99.90;;;;;;5119528;27;20115;-39
2023/07/20 02:44:56;;;;;;;4.85;4.45;;;12.00;99.90;;;;;;5115687;27;20532;-39
2023/07/20 02:47:22;;;;;;;5.47;4.47;;;12.00;99.90;;;;;;5101227;27;20664;-39
2023/07/20 02:49:47;;;;;;;4.90;4.40;;;12.00;99.90;;;;;;5118423;27;20059;-39
2023/07/20 02:52:13;;;;;;;4.97;4.47;;;11.90;99.90;;;;;;5119223;27;20039;-39
2023/07/20 02:54:39;;;;;;;6.95;5.15;;;12.00;99.90;;;;;;5116889;27;20088;-39
2023/07/20 02:57:05;;;;;;;5.53;4.22;;;12.00;99.90;;;;;;5118164;27;20374;-39
2023/07/20 02:59:30;;;;;;;4.40;4.00;;;12.00;99.90;;;;;;5119097;27;20039;-39
2023/07/20 03:01:57;;;;;;;5.25;3.92;;;11.90;99.90;;;;;;5119088;27;20569;-39
2023/07/20 03:04:25;;;;;;;7.32;4.20;;;11.90;99.90;;;;;;5117809;27;20084;-39
2023/07/20 03:06:51;;;;;;;4.03;3.63;;;11.80;99.90;;;;;;5118951;27;20047;-39
2023/07/20 03:09:16;;;;;;;4.35;3.50;;;11.80;99.90;;;;;;5118768;27;20076;-39
2023/07/20 03:11:42;;;;;;;4.18;3.88;;;11.80;99.90;;;;;;5118116;27;20431;-39
2023/07/20 03:14:08;;;;;;;3.88;3.45;;;11.80;99.90;;;;;;5114261;27;20035;-39
2023/07/20 03:16:33;;;;;;;4.45;4.03;;;11.80;99.90;;;;;;5109824;27;20124;-39
2023/07/20 03:19:03;;;;;;;5.45;4.32;;;11.70;99.90;;;;;;5118933;27;20471;-39
2023/07/20 03:21:29;;;;;;;3.50;3.20;;;11.60;99.90;;;;;;5119443;27;20046;-39
2023/07/20 03:23:55;;;;;;;3.72;3.35;;;11.50;99.90;;;;;;5111875;27;20046;-39
2023/07/20 03:26:21;;;;;;;4.72;3.80;;;11.50;99.90;;;;;;5117633;27;20073;-39
2023/07/20 03:28:47;;;;;;;6.10;4.20;;;11.50;99.90;;;;;;5117687;27;20073;-39
2023/07/20 03:31:14;;;;;;;5.00;4.60;;;11.40;99.90;;;;;;5118003;27;20043;-39
2023/07/20 03:33:40;;;;;;;5.10;4.70;;;11.50;99.90;;;;;;5117984;27;20055;-39
2023/07/20 03:36:10;;;;;;;6.22;5.63;;;11.50;99.90;;;;;;5117015;27;20090;-39
2023/07/20 03:38:35;;;;;;;5.85;4.97;;;11.50;99.90;;;;;;5118180;27;20047;-39
2023/07/20 03:41:01;;;;;;;5.20;4.70;;;11.60;99.90;;;;;;5118730;27;20046;-39
2023/07/20 03:43:28;;;;;;;6.28;5.68;;;11.60;99.90;;;;;;5107175;27;20358;-39
2023/07/20 03:45:54;;;;;;;6.68;5.35;;;11.60;99.90;;;;;;5116849;27;20047;-39
2023/07/20 03:48:22;;;;;;;5.68;5.18;;;11.70;99.90;;;;;;5136264;27;20421;-39
2023/07/20 03:50:49;;;;;;;5.50;5.10;;;11.70;99.90;;;;;;5138792;27;20088;-39
2023/07/20 03:53:15;;;;;;;6.63;5.60;;;11.70;99.90;;;;;;5138183;27;20320;-39
2023/07/20 03:55:41;;;;;;;5.90;5.40;;;11.70;99.90;;;;;;5137912;27;20129;-39
2023/07/20 03:58:07;;;;;;;6.18;4.88;;;11.70;99.90;;;;;;5138718;27;20049;-39
2023/07/20 04:00:34;;;;;;;6.97;4.90;;;11.80;99.90;;;;;;5132025;27;20469;-39
2023/07/20 04:03:00;;;;;;;5.97;4.50;;;11.80;99.90;;;;;;5133437;27;20034;-39
2023/07/20 04:05:25;;;;;;;9.95;6.22;;;11.90;99.90;;;;;;5136445;27;20057;-39
2023/07/20 04:07:51;;;;;;;4.28;3.88;;;11.90;99.90;;;;;;5138066;27;20042;-39
2023/07/20 04:10:18;;;;;;;4.05;3.40;;;11.80;99.90;;;;;;5138762;27;20054;-39
2023/07/20 04:12:46;;;;;;;4.00;2.97;;;11.80;99.90;;;;;;5119446;27;20054;-39
2023/07/20 04:15:13;;;;;;;2.60;2.40;;;11.80;99.90;;;;;;5112616;27;20047;-39
2023/07/20 04:17:39;;;;;;;4.28;3.00;;;11.80;99.90;;;;;;5116735;27;20248;-39
2023/07/20 04:20:06;;;;;;;3.28;2.97;;;11.80;99.90;;;;;;5117222;27;20054;-39
2023/07/20 04:22:31;;;;;;;2.88;2.67;;;11.80;99.90;;;;;;5116828;27;20050;-39
2023/07/20 04:24:57;;;;;;;3.88;3.50;;;11.90;99.90;;;;;;5092001;27;20074;-39
2023/07/20 04:27:23;;;;;;;3.80;3.50;;;12.10;99.90;;;;;;5118223;27;20054;-39
2023/07/20 04:29:48;;;;;;;4.47;3.80;;;12.80;99.90;;;;;;5117841;27;20046;-39
2023/07/20 04:32:14;;;;;;;4.70;4.25;;;13.70;99.90;;;;;;5117523;27;20047;-39
2023/07/20 04:34:40;;;;;;;4.20;3.80;;;14.80;99.90;;;;;;5097482;27;20051;-40
2023/07/20 04:37:05;;;;;;;4.35;3.95;;;15.70;99.90;;;;;;5117229;27;20047;-39
2023/07/20 04:39:31;;;;;;;3.58;3.28;;;16.50;99.90;;;;;;5098522;27;20505;-40
2023/07/20 04:41:57;;;;;;;3.60;3.28;;;17.20;99.90;;;;;;5114781;27;20629;-40
2023/07/20 04:44:23;;;;;;;3.47;3.17;;;17.50;99.90;;;;;;5128160;27;20039;-40
2023/07/20 04:46:49;;;;;;;3.72;3.08;;;17.30;99.90;;;;;;5137503;27;20042;-40
2023/07/20 04:49:15;;;;;;;3.60;2.70;;;17.30;99.90;;;;;;5137829;27;20087;-40
2023/07/20 04:51:40;;;;;;;4.25;3.03;;;17.90;99.90;;;;;;5137234;27;20475;-40
2023/07/20 04:54:06;;;;;;;3.63;2.97;;;18.50;99.90;;;;;;5136390;27;20038;-40
2023/07/20 04:56:33;;;;;;;3.80;3.38;;;19.00;99.90;;;;;;5137084;27;20617;-40
2023/07/20 04:58:59;;;;;;;5.63;2.90;;;19.50;99.90;;;;;;5137883;27;20054;-41
2023/07/20 05:01:26;;;;;;;3.53;2.90;;;20.10;99.90;;;;;;5137684;27;20483;-41
2023/07/20 05:03:52;;;;;;;5.30;3.03;;;20.50;99.90;;;;;;5135825;27;20047;-41
2023/07/20 05:06:18;;;;;;;4.03;2.90;;;20.80;99.90;;;;;;5117208;27;20055;-41
2023/07/20 05:08:44;;;;;;;3.75;3.33;;;21.40;99.90;;;;;;5116258;27;20054;-41
2023/07/20 05:11:10;;;;;;;4.20;2.72;;;22.00;99.90;;;;;;5097525;27;20108;-42
2023/07/20 05:13:36;;;;;;;4.57;3.00;;;22.70;99.90;;;;;;5116719;27;20461;-41
2023/07/20 05:16:02;;;;;;;4.07;2.45;;;22.80;99.90;;;;;;5103108;27;20042;-42
2023/07/20 05:18:28;;;;;;;3.13;2.80;;;22.90;99.90;;;;;;5116659;27;20469;-42
2023/07/20 05:20:54;;;;;;;4.07;2.78;;;23.00;99.90;;;;;;5116310;27;20539;-42
2023/07/20 05:23:21;;;;;;;3.58;2.30;;;23.40;99.90;;;;;;5111512;27;20047;-41
2023/07/20 05:25:47;;;;;;;3.17;2.15;;;23.50;99.90;;;;;;5112864;27;20394;-43
2023/07/20 05:28:12;;;;;;;2.28;1.92;;;23.90;99.90;;;;;;5116221;27;20213;-42
2023/07/20 05:30:39;;;;;;;7.55;3.00;;;24.10;99.90;;;;;;5115493;27;20690;-42
2023/07/20 05:33:05;;;;;;;3.90;2.10;;;24.20;99.90;;;;;;5115542;27;20480;-42
2023/07/20 05:35:30;;;;;;;3.50;2.00;;;24.70;99.90;;;;;;5114862;27;20047;-42
2023/07/20 05:37:56;;;;;;;6.63;2.70;;;24.90;99.50;;;;;;5115766;27;20058;-42
2023/07/20 05:40:22;;;;;;;4.10;2.35;;;25.00;99.10;;;;;;5116090;27;20427;-41
2023/07/20 05:42:51;;;;;;;3.47;2.15;;;25.00;99.00;;;;;;5114278;27;20404;-42
2023/07/20 05:45:17;;;;;;;2.33;1.85;;;25.00;99.70;;;;;;5113815;27;20562;-42
2023/07/20 05:47:43;;;;;;;2.17;1.92;;;25.20;99.40;;;;;;5115482;27;20051;-42
2023/07/20 05:50:09;;;;;;;4.00;2.35;;;25.10;99.30;;;;;;5115347;27;20050;-42
2023/07/20 05:52:35;;;;;;;2.83;2.15;;;25.20;98.30;;;;;;5097505;27;20051;-39
2023/07/20 05:55:01;;;;;;;3.45;2.47;;;25.30;99.20;;;;;;5114219;27;20131;-42
2023/07/20 05:57:26;;;;;;;2.90;1.83;;;25.50;98.60;;;;;;5115727;27;20466;-42
2023/07/20 05:59:52;;;;;;;2.50;1.85;;;25.70;99.30;;;;;;5097439;28;20319;-42
2023/07/20 06:02:18;;;;;;;5.60;1.63;;;26.20;98.90;;;;;;5115553;27;20051;-42
2023/07/20 06:04:43;;;;;;;2.22;1.83;;;26.20;98.00;;;;;;5113837;27;20054;-43
2023/07/20 06:07:09;;;;;;;2.20;1.65;;;26.40;97.90;;;;;;5115354;27;20055;-41
2023/07/20 06:09:35;;;;;;;3.90;1.63;;;27.40;98.30;;;;;;5115092;27;20477;-42
2023/07/20 06:12:00;;;;;;;3.13;1.88;;;28.20;96.60;;;;;;5115611;27;20058;-42
2023/07/20 06:14:26;;;;;;;3.70;1.95;;;28.60;95.10;;;;;;5102585;27;20058;-43
2023/07/20 06:16:52;;;;;;;3.50;1.80;;;28.90;95.10;;;;;;5112008;27;20887;-42
2023/07/20 06:19:17;;;;;;;3.30;1.55;;;29.10;94.50;;;;;;5114174;27;20155;-41
2023/07/20 06:21:43;;;;;;;3.45;1.42;;;28.90;94.20;;;;;;5114898;27;20158;-40
2023/07/20 06:24:09;;;;;;;3.55;2.00;;;29.00;93.40;;;;;;5109478;27;20122;-42
2023/07/20 06:26:38;;;;;;;4.35;1.60;;;29.00;93.50;;;;;;5096962;28;20059;-41
2023/07/20 06:29:06;;;;;;;4.07;1.40;;;29.60;94.10;;;;;;5115070;27;20053;-42
2023/07/20 06:31:32;;;;;;;3.10;1.40;;;29.60;92.90;;;;;;5102087;27;20114;-43
2023/07/20 06:33:58;;;;;;;1.70;1.30;;;29.10;92.60;;;;;;5105459;27;20428;-42
2023/07/20 06:36:25;;;;;;;3.75;1.45;;;28.90;93.50;;;;;;5108357;27;20085;-41
2023/07/20 06:38:51;;;;;;;2.75;1.30;;;29.00;92.60;;;;;;5126049;27;20089;-44
2023/07/20 06:41:18;;;;;;;2.22;1.20;;;29.30;92.50;;;;;;5103779;27;20683;-43
2023/07/20 06:43:43;;;;;;;3.08;1.70;;;29.80;93.00;;;;;;5106294;27;20050;-42
2023/07/20 06:46:09;;;;;;;4.05;1.40;;;29.80;92.40;;;;;;5126963;27;20051;-42
2023/07/20 06:48:35;;;;;;;3.28;1.38;;;29.80;91.30;;;;;;5129195;27;20039;-42
2023/07/20 06:51:00;;;;;;;3.17;1.30;;;29.20;92.80;;;;;;5115166;27;20408;-42
2023/07/20 06:53:26;;;;;;;5.22;1.55;;;29.30;91.30;;;;;;5089948;27;20057;-42
2023/07/20 06:55:52;;;;;;;3.53;1.25;;;27.90;91.50;;;;;;5135444;27;20047;-41
2023/07/20 06:58:18;;;;;;;2.25;1.30;;;27.40;92.10;;;;;;5097294;28;20581;-41
2023/07/20 07:00:44;;;;;;;2.55;0.93;;;28.30;92.50;;;;;;5115388;27;20051;-40
2023/07/20 07:03:10;;;;;;;3.20;1.52;;;28.70;91.40;;;;;;5118253;27;20039;-44
2023/07/20 07:05:39;;;;;;;4.22;1.40;;;28.60;90.10;;;;;;5099676;27;20073;-43
2023/07/20 07:08:05;;;;;;;2.65;1.13;;;27.60;91.50;;;;;;5119482;27;20047;-42
2023/07/20 07:10:31;;;;;;;4.07;1.60;;;26.90;92.40;;;;;;5119141;27;20057;-42
2023/07/20 07:12:56;;;;;;;2.65;1.20;;;26.50;92.60;;;;;;5118253;27;20446;-41
2023/07/20 07:15:22;;;;;;;3.08;1.38;;;26.60;93.10;;;;;;5105261;27;20471;-42
2023/07/20 07:17:48;;;;;;;4.35;1.42;;;27.10;92.40;;;;;;5117900;27;20039;-41
2023/07/20 07:20:13;;;;;;;2.42;1.35;;;27.40;92.40;;;;;;5117784;27;20035;-42
2023/07/20 07:22:39;;;;;;;2.33;1.30;;;26.90;92.10;;;;;;5118798;27;20043;-41
2023/07/20 07:25:05;;;;;;;2.67;1.30;;;26.10;92.20;;;;;;5115566;27;20041;-41
2023/07/20 07:27:31;;;;;;;3.28;1.42;;;25.20;93.00;;;;;;5099945;27;20235;-43
2023/07/20 07:29:56;;;;;;;4.25;1.65;;;25.10;94.00;;;;;;5117620;27;20488;-40
2023/07/20 07:32:22;;;;;;;3.90;1.35;;;24.80;93.20;;;;;;5099239;27;20457;-41
2023/07/20 07:34:48;;;;;;;2.13;1.05;;;25.20;93.60;;;;;;5116977;27;20049;-41
2023/07/20 07:37:14;;;;;;;1.63;0.98;;;25.30;93.80;;;;;;5108735;27;20070;-42
2023/07/20 07:39:40;;;;;;;2.22;1.10;;;25.20;92.40;;;;;;5117340;27;20039;-42
2023/07/20 07:42:06;;;;;;;1.55;1.08;;;25.20;92.40;;;;;;5117104;27;20039;-40
2023/07/20 07:44:31;;;;;;;2.90;1.10;;;24.70;92.10;;;;;;5113885;27;20166;-44
2023/07/20 07:46:57;;;;;;;2.22;1.00;;;24.90;93.60;;;;;;5099072;27;20100;-41
2023/07/20 07:49:23;;;;;;;2.42;1.08;;;24.90;92.70;;;;;;5105073;27;20469;-42
2023/07/20 07:51:49;;;;;;;3.35;1.45;;;24.90;93.10;;;;;;5118013;27;20495;-40
2023/07/20 07:54:14;;;;;;;4.65;1.05;;;24.90;93.00;;;;;;5104271;27;20153;-41
2023/07/20 07:56:40;;;;;;;4.68;1.40;;;24.40;93.20;;;;;;5084746;28;20051;-41
2023/07/20 07:59:06;;;;;;;1.98;1.20;;;23.80;93.70;;;;;;5110753;27;20405;-44
2023/07/20 08:01:32;;;;;;;1.95;1.30;;;23.80;94.30;;;;;;5118277;27;20081;-42
2023/07/20 08:03:58;;;;;;;2.17;0.88;;;23.70;94.90;;;;;;5098389;27;20568;-41
2023/07/20 08:06:24;;;;;;;4.13;1.08;;;23.90;93.20;;;;;;5118393;27;20656;-41
2023/07/20 08:08:50;;;;;;;4.80;1.05;;;23.90;92.70;;;;;;5117908;27;20473;-42
2023/07/20 08:11:17;;;;;;;2.58;1.10;;;23.80;93.20;;;;;;5112924;27;20549;-41
2023/07/20 08:13:43;;;;;;;2.25;1.15;;;23.90;92.80;;;;;;5109212;27;20837;-43
2023/07/20 08:16:09;;;;;;;2.25;1.35;;;24.20;93.20;;;;;;5105529;27;20130;-41
2023/07/20 08:18:34;;;;;;;2.08;1.13;;;24.20;92.50;;;;;;5117537;27;20055;-41
2023/07/20 08:21:00;;;;;;;2.78;0.88;;;23.90;92.80;;;;;;5098448;27;20489;-40
2023/07/20 08:23:27;;;;;;;2.00;1.17;;;24.00;92.80;;;;;;5111085;27;20408;-42
2023/07/20 08:25:53;;;;;;;1.85;1.08;;;24.00;93.50;;;;;;5111209;27;20086;-42
2023/07/20 08:28:19;;;;;;;3.80;1.73;;;24.10;93.00;;;;;;5108873;27;20134;-41
2023/07/20 08:30:46;;;;;;;3.40;1.55;;;24.20;93.20;;;;;;5107762;27;20043;-41
2023/07/20 08:33:20;;;;;;;4.13;1.60;;;24.00;92.80;;;;;;5098618;27;20043;-41
2023/07/20 08:35:46;;;;;;;2.88;1.70;;;23.90;92.70;;;;;;5131263;27;20114;-41
2023/07/20 08:38:12;;;;;;;4.47;1.92;;;23.90;93.50;;;;;;5137109;27;20125;-41
2023/07/20 08:40:44;;;;;;;2.58;1.50;;;23.70;93.10;;;;;;5137753;27;20050;-41
2023/07/20 08:43:13;;;;;;;3.67;1.70;;;23.80;93.50;;;;;;5129790;27;20401;-44
2023/07/20 08:45:40;;;;;;;3.25;1.98;;;23.90;92.40;;;;;;5114199;27;20510;-40
2023/07/20 08:48:07;;;;;;;4.55;1.92;;;23.70;90.60;;;;;;5137943;27;20134;-41
2023/07/20 08:50:35;;;;;;;3.42;1.55;;;23.80;92.40;;;;;;5137684;27;20049;-41
2023/07/20 08:53:01;;;;;;;2.85;1.75;;;24.00;92.00;;;;;;5114118;27;20051;-41
2023/07/20 08:55:28;;;;;;;5.13;1.80;;;23.90;91.80;;;;;;5114485;27;20089;-41
2023/07/20 08:57:58;;;;;;;3.65;1.83;;;24.10;92.60;;;;;;5088760;27;20078;-43
2023/07/20 09:00:25;;;;;;;2.45;1.65;;;24.10;93.00;;;;;;5137597;27;20520;-42
2023/07/20 09:02:53;;;;;;;4.82;2.05;;;23.80;92.10;;;;;;5130168;27;20274;-41
2023/07/20 09:05:20;;;;;;;3.88;2.25;;;23.70;91.40;;;;;;5106662;27;20043;-42
2023/07/20 09:07:46;;;;;;;4.15;2.10;;;23.50;91.30;;;;;;5115359;27;20059;-42
2023/07/20 09:10:12;;;;;;;4.68;1.90;;;23.40;91.70;;;;;;5115692;27;20047;-40
2023/07/20 09:12:39;;;;;;;3.72;2.00;;;23.50;91.60;;;;;;5110786;27;20090;-44
2023/07/20 09:15:06;;;;;;;2.85;1.70;;;23.50;91.30;;;;;;5096380;27;20055;-41
2023/07/20 09:17:32;;;;;;;3.22;1.90;;;23.40;90.30;;;;;;5113761;27;20058;-41
2023/07/20 09:19:58;;;;;;;2.40;2.08;;;23.40;91.60;;;;;;5114616;27;20080;-41
2023/07/20 09:22:31;;;;;;;4.60;2.38;;;23.50;90.70;;;;;;5105790;27;20040;-42
2023/07/20 09:24:58;;;;;;;3.80;1.85;;;23.60;91.10;;;;;;5101719;27;20050;-43
2023/07/20 09:27:44;;;;;;;3.20;1.83;;;23.90;91.10;;;;;;5116109;27;20505;-41
2023/07/20 09:30:14;;;;;;;3.22;2.15;;;23.80;89.20;;;;;;5115689;27;20143;-40
2023/07/20 09:32:50;;;;;;;2.50;1.80;;;23.60;90.10;;;;;;5115865;27;20175;-43
2023/07/20 09:35:21;;;;;;;2.78;1.60;;;23.20;90.90;;;;;;5113914;27;20638;-41
2023/07/20 09:37:52;;;;;;;3.10;1.95;;;22.90;90.30;;;;;;5115982;27;20043;-41
2023/07/20 09:40:18;;;;;;;4.25;2.00;;;22.90;90.20;;;;;;5116185;27;20090;-41
2023/07/20 09:42:44;;;;;;;2.50;1.70;;;23.00;91.30;;;;;;5094876;28;20656;-40
2023/07/20 09:45:11;;;;;;;3.72;1.80;;;23.20;90.90;;;;;;5113547;27;20050;-41
2023/07/20 09:47:40;;;;;;;3.22;1.60;;;23.40;91.20;;;;;;5116458;27;20445;-42
2023/07/20 09:50:10;;;;;;;4.78;2.42;;;23.60;89.40;;;;;;5115416;27;20509;-43
2023/07/20 09:52:45;;;;;;;6.32;2.38;;;23.70;90.70;;;;;;5114889;27;20255;-42
2023/07/20 09:55:13;;;;;;;4.00;1.90;;;23.90;91.30;;;;;;5134451;27;20380;-44
2023/07/20 09:57:39;;;;;;;2.75;1.80;;;23.80;91.60;;;;;;5134528;27;20538;-41
2023/07/20 10:00:12;;;;;;;4.63;2.15;;;23.90;92.80;;;;;;5117190;27;20068;-41
2023/07/20 10:02:43;;;;;;;3.22;1.60;;;24.20;92.00;;;;;;5112883;27;20167;-42
2023/07/20 10:05:15;;;;;;;3.88;1.83;;;24.20;91.80;;;;;;5108618;27;20050;-45
2023/07/20 10:07:47;;;;;;;4.50;1.93;;;24.10;90.00;;;;;;5118847;27;20674;-42
2023/07/20 10:10:18;;;;;;;2.83;1.73;;;24.20;90.40;;;;;;5110553;27;20054;-41
2023/07/20 10:12:48;;;;;;;3.45;1.85;;;24.20;90.80;;;;;;5115390;27;20071;-42
2023/07/20 10:15:17;;;;;;;2.25;1.63;;;24.10;86.70;;;;;;5102543;27;20039;-41
2023/07/20 10:18:11;;;;;;;2.72;1.92;;;24.30;90.00;;;;;;5115968;27;20051;-41
2023/07/20 10:20:41;;;;;;;4.90;2.03;;;24.40;89.00;;;;;;5105375;27;20059;-42
2023/07/20 10:23:08;;;;;;;3.88;1.92;;;24.50;90.30;;;;;;5112640;27;20529;-41
2023/07/20 10:25:37;;;;;;;3.15;2.00;;;24.70;85.10;;;;;;5083946;28;20051;-40
2023/07/20 10:28:06;;;;;;;5.35;1.90;;;24.70;88.30;;;;;;5102194;27;20047;-42
2023/07/20 10:30:34;;;;;;;6.85;2.22;;;24.70;88.10;;;;;;5104252;27;20047;-41
2023/07/20 10:33:02;;;;;;;2.83;1.73;;;24.80;91.20;;;;;;5083808;28;20047;-40
2023/07/20 10:35:28;;;;;;;6.05;2.08;;;24.90;89.70;;;;;;5100335;27;20085;-43
2023/07/20 10:37:54;;;;;;;5.38;1.95;;;24.90;87.50;;;;;;5111713;27;20088;-41
2023/07/20 10:40:30;;;;;;;3.20;1.63;;;24.70;83.60;;;;;;5104385;27;20079;-42
2023/07/20 10:42:59;;;;;;;2.05;1.45;;;24.80;88.70;;;;;;5120139;27;20054;-42
2023/07/20 10:45:51;;;;;;;2.75;1.55;;;25.00;89.80;;;;;;5124360;27;20078;-40
2023/07/20 10:48:22;;;;;;;2.38;1.58;;;25.20;85.10;;;;;;5135376;27;20115;-41
2023/07/20 10:51:16;;;;;;;3.20;1.50;;;25.30;84.20;;;;;;5140323;27;20059;-41
2023/07/20 10:53:42;;;;;;;2.63;1.70;;;25.10;84.70;;;;;;5106479;27;20463;-42
2023/07/20 10:56:15;;;;;;;4.60;2.10;;;25.00;87.00;;;;;;5118135;27;20050;-41
2023/07/20 10:58:41;;;;;;;3.25;1.48;;;25.10;89.30;;;;;;5119219;27;20095;-41
2023/07/20 11:01:08;;;;;;;2.67;1.50;;;25.20;82.80;;;;;;5118476;27;20043;-42
2023/07/20 11:03:39;;;;;;;3.38;1.60;;;25.30;88.00;;;;;;5116511;27;20039;-41
2023/07/20 11:06:24;;;;;;;2.10;1.42;;;25.40;85.70;;;;;;5114478;27;20047;-43
2023/07/20 11:08:55;;;;;;;2.55;1.63;;;25.30;81.20;;;;;;5099126;27;20039;-40
2023/07/20 11:11:21;;;;;;;2.92;1.63;;;25.00;82.50;;;;;;5112260;27;20609;-40
2023/07/20 11:14:01;;;;;;;3.05;1.83;;;24.60;84.00;;;;;;5100196;27;20166;-44
2023/07/20 11:16:54;;;;;;;4.13;1.70;;;24.20;85.80;;;;;;5085124;28;20044;-40
2023/07/20 11:19:29;;;;;;;2.28;1.15;;;24.30;87.00;;;;;;5096170;27;20047;-42
2023/07/20 11:21:58;;;;;;;2.97;1.38;;;24.30;86.40;;;;;;5103508;27;20138;-40
2023/07/20 11:24:24;;;;;;;2.30;1.38;;;24.20;83.60;;;;;;5119440;27;20038;-40
2023/07/20 11:26:52;;;;;;;2.63;1.50;;;24.40;90.60;;;;;;5138730;27;20091;-41
2023/07/20 11:29:22;;;;;;;2.08;1.77;;;24.70;85.00;;;;;;5139190;27;20042;-42
2023/07/20 11:31:48;;;;;;;3.13;1.50;;;24.80;86.60;;;;;;5137777;27;20500;-42
2023/07/20 11:34:16;;;;;;;2.00;1.52;;;24.90;85.60;;;;;;5119577;27;20058;-43
2023/07/20 11:36:43;;;;;;;3.70;1.73;;;25.10;87.20;;;;;;5126513;27;20060;-40
2023/07/20 11:39:15;;;;;;;2.05;1.80;;;25.20;88.00;;;;;;5101013;27;20188;-41
2023/07/20 11:41:48;;;;;;;4.20;2.13;;;25.00;90.20;;;;;;5084780;27;20055;-40
2023/07/20 11:44:15;;;;;;;3.13;1.77;;;25.00;90.10;;;;;;5101168;27;20163;-41
2023/07/20 11:46:42;;;;;;;2.28;1.55;;;25.10;90.10;;;;;;5079887;27;20087;-40
2023/07/20 11:49:08;;;;;;;2.17;1.45;;;25.10;88.20;;;;;;5098714;27;20572;-40
2023/07/20 11:51:34;;;;;;;2.13;1.60;;;24.70;86.80;;;;;;5100667;27;20598;-41
2023/07/20 11:54:02;;;;;;;2.40;1.50;;;24.40;86.00;;;;;;5098902;27;20523;-40
2023/07/20 11:56:28;;;;;;;3.17;1.25;;;24.10;87.60;;;;;;5109780;27;20043;-41
2023/07/20 11:59:01;;;;;;;2.42;1.90;;;23.90;87.20;;;;;;5139159;27;20043;-41
2023/07/20 12:01:34;;;;;;;2.08;1.42;;;23.90;88.50;;;;;;5135130;27;20053;-42
2023/07/20 12:04:04;;;;;;;3.22;1.70;;;23.80;88.20;;;;;;5135437;27;20043;-41
2023/07/20 12:06:30;;;;;;;3.75;2.00;;;23.70;89.00;;;;;;5115506;27;20049;-42
2023/07/20 12:08:57;;;;;;;3.13;1.52;;;23.80;90.60;;;;;;5106605;27;20047;-41
2023/07/20 12:11:32;;;;;;;4.07;2.40;;;23.80;90.50;;;;;;5119343;27;20047;-41
2023/07/20 12:13:59;;;;;;;3.28;1.90;;;23.60;88.20;;;;;;5100096;27;20127;-42
2023/07/20 12:16:28;;;;;;;3.05;1.85;;;23.50;89.20;;;;;;5111178;27;20045;-40
2023/07/20 12:19:06;;;;;;;3.22;1.80;;;23.40;90.50;;;;;;5112629;27;20449;-42
2023/07/20 12:21:36;;;;;;;5.07;1.77;;;23.30;90.40;;;;;;5107241;27;20050;-42
2023/07/20 12:24:03;;;;;;;5.80;1.67;;;23.30;90.20;;;;;;5107320;27;20393;-41
2023/07/20 12:26:30;;;;;;;2.38;1.50;;;23.20;90.10;;;;;;5117302;27;20050;-40
2023/07/20 12:28:56;;;;;;;4.38;1.60;;;23.10;90.40;;;;;;5101456;27;20128;-41
2023/07/20 12:31:24;;;;;;;3.03;1.67;;;23.20;90.20;;;;;;5107602;27;20513;-40
2023/07/20 12:33:55;;;;;;;2.53;1.52;;;22.90;90.40;;;;;;5097751;27;20069;-43
2023/07/20 12:36:21;;;;;;;4.32;1.80;;;23.10;91.30;;;;;;5089867;27;20070;-41
2023/07/20 12:38:47;;;;;;;2.78;1.60;;;22.90;90.60;;;;;;5105357;27;20494;-41
2023/07/20 12:41:13;;;;;;;1.98;1.40;;;22.80;91.20;;;;;;5116854;27;20082;-41
2023/07/20 12:43:42;;;;;;;3.08;1.92;;;22.80;90.70;;;;;;5090201;27;20750;-45
2023/07/20 12:46:08;;;;;;;2.83;1.88;;;22.80;91.00;;;;;;5108630;27;20051;-41
2023/07/20 12:48:37;;;;;;;4.72;2.20;;;23.00;91.60;;;;;;5117112;27;20051;-41
2023/07/20 12:51:03;;;;;;;2.95;2.08;;;23.10;90.80;;;;;;5112389;27;20496;-44